createdAt,value
2022-11-13T00:01:25.981Z,59.19
2022-11-13T00:04:11.597Z,59.02
2022-11-13T00:06:59.392Z,58.67
2022-11-13T00:09:45.179Z,58.42
2022-11-13T00:12:31.218Z,58.61
2022-11-13T00:15:16.736Z,58.31
2022-11-13T00:18:03.413Z,58.33
2022-11-13T00:20:48.840Z,58.56
2022-11-13T00:23:36.259Z,58.81
2022-11-13T00:26:24.289Z,58.81
2022-11-13T00:29:09.875Z,58.56
2022-11-13T00:31:55.394Z,58.82
2022-11-13T00:34:47.556Z,58.64
2022-11-13T00:37:33.523Z,57.97
2022-11-13T00:40:19.259Z,58.62
2022-11-13T00:43:05.035Z,58.36
2022-11-13T00:45:50.918Z,57.77
2022-11-13T00:48:37.070Z,58.16
2022-11-13T00:51:23.419Z,57.89
2022-11-13T00:54:09.364Z,58.04
2022-11-13T00:56:55.056Z,57.90
2022-11-13T00:59:40.418Z,57.62
2022-11-13T01:02:25.924Z,57.78
2022-11-13T01:05:11.858Z,57.54
2022-11-13T01:07:57.546Z,58.11
2022-11-13T01:10:53.063Z,57.55
2022-11-13T01:13:44.346Z,57.97
2022-11-13T01:16:30.375Z,57.99
2022-11-13T01:19:16.091Z,58.07
2022-11-13T01:22:01.509Z,57.82
2022-11-13T01:24:47.170Z,57.81
2022-11-13T01:27:32.805Z,57.87
2022-11-13T01:30:18.641Z,57.72
2022-11-13T01:33:04.145Z,57.84
2022-11-13T01:35:50.560Z,57.56
2022-11-13T01:38:37.288Z,57.65
2022-11-13T01:41:27.825Z,58.21
2022-11-13T01:44:16.232Z,58.74
2022-11-13T01:47:03.075Z,59.28
2022-11-13T01:49:51.811Z,59.36
2022-11-13T01:52:41.265Z,59.96
2022-11-13T01:55:26.935Z,59.75
2022-11-13T01:58:15.159Z,60.29
2022-11-13T02:01:00.986Z,60.33
2022-11-13T02:03:46.744Z,60.15
2022-11-13T02:06:54.504Z,59.82
2022-11-13T02:09:43.054Z,60.17
2022-11-13T02:12:36.153Z,59.96
2022-11-13T02:15:26.024Z,60.33
2022-11-13T02:18:12.792Z,60.30
2022-11-13T02:21:04.162Z,60.79
2022-11-13T02:24:22.996Z,60.15
2022-11-13T02:27:16.038Z,60.17
2022-11-13T02:30:23.612Z,60.04
2022-11-13T02:33:29.051Z,60.08
2022-11-13T02:36:16.093Z,60.47
2022-11-13T02:39:06.873Z,60.32
2022-11-13T02:41:52.285Z,60.43
2022-11-13T02:44:38.178Z,60.77
2022-11-13T02:47:24.050Z,60.25
2022-11-13T02:50:10.910Z,60.22
2022-11-13T02:52:56.819Z,60.16
2022-11-13T02:55:42.290Z,60.44
2022-11-13T02:58:27.889Z,60.30
2022-11-13T03:01:13.492Z,60.81
2022-11-13T03:03:59.090Z,60.77
2022-11-13T03:06:44.911Z,60.74
2022-11-13T03:09:30.751Z,60.72
2022-11-13T03:12:16.189Z,60.53
2022-11-13T03:15:01.786Z,60.32
2022-11-13T03:17:47.311Z,60.28
2022-11-13T03:20:35.844Z,60.11
2022-11-13T03:23:21.089Z,59.90
2022-11-13T03:26:09.683Z,59.69
2022-11-13T03:28:55.605Z,59.71
2022-11-13T03:31:41.321Z,59.46
2022-11-13T03:34:26.613Z,59.68
2022-11-13T03:37:12.171Z,59.00
2022-11-13T03:39:57.732Z,59.08
2022-11-13T03:42:43.340Z,58.95
2022-11-13T03:45:28.634Z,58.78
2022-11-13T03:48:15.740Z,58.42
2022-11-13T03:51:01.411Z,58.73
2022-11-13T03:53:46.910Z,58.46
2022-11-13T03:56:32.611Z,58.29
2022-11-13T03:59:17.991Z,58.01
2022-11-13T04:02:03.618Z,58.09
2022-11-13T04:04:50.409Z,58.63
2022-11-13T04:07:36.359Z,57.99
2022-11-13T04:10:22.610Z,57.90
2022-11-13T04:13:08.562Z,57.69
2022-11-13T04:15:54.067Z,57.88
2022-11-13T04:18:39.510Z,57.78
2022-11-13T04:21:24.978Z,58.18
2022-11-13T04:24:10.690Z,58.01
2022-11-13T04:26:56.136Z,58.42
2022-11-13T04:29:41.881Z,58.69
2022-11-13T04:32:27.436Z,58.97
2022-11-13T04:35:13.177Z,58.71
2022-11-13T04:37:58.606Z,58.90
2022-11-13T04:40:44.476Z,58.56
2022-11-13T04:43:30.092Z,58.75
2022-11-13T04:46:15.455Z,58.88
2022-11-13T04:49:00.923Z,59.15
2022-11-13T04:51:46.438Z,58.98
2022-11-13T04:54:32.096Z,59.26
2022-11-13T04:57:17.749Z,58.96
2022-11-13T05:00:05.551Z,59.59
2022-11-13T05:02:51.399Z,59.29
2022-11-13T05:05:37.101Z,59.63
2022-11-13T05:08:22.567Z,59.65
2022-11-13T05:11:09.433Z,59.70
2022-11-13T05:13:58.315Z,59.87
2022-11-13T05:16:46.689Z,59.64
2022-11-13T05:19:35.357Z,60.06
2022-11-13T05:22:20.839Z,59.95
2022-11-13T05:25:06.577Z,59.80
2022-11-13T05:27:52.189Z,59.95
2022-11-13T05:30:37.675Z,59.91
2022-11-13T05:33:23.085Z,60.40
2022-11-13T05:36:13.981Z,60.05
2022-11-13T05:38:59.726Z,60.48
2022-11-13T05:41:45.266Z,60.08
2022-11-13T05:44:31.108Z,60.66
2022-11-13T05:47:16.784Z,60.42
2022-11-13T05:50:02.283Z,60.58
2022-11-13T05:52:48.342Z,60.08
2022-11-13T05:55:33.742Z,60.47
2022-11-13T05:58:19.557Z,60.44
2022-11-13T06:01:29.531Z,60.17
2022-11-13T06:04:15.019Z,60.74
2022-11-13T06:07:00.435Z,60.87
2022-11-13T06:09:45.748Z,60.52
2022-11-13T06:12:31.278Z,61.04
2022-11-13T06:15:16.836Z,61.61
2022-11-13T06:18:02.531Z,63.06
2022-11-13T06:20:48.326Z,64.21
2022-11-13T06:23:36.149Z,65.61
2022-11-13T06:26:28.090Z,66.78
2022-11-13T06:29:14.012Z,67.57
2022-11-13T06:31:59.533Z,68.92
2022-11-13T06:34:45.055Z,68.67
2022-11-13T06:37:34.591Z,68.48
2022-11-13T06:40:20.002Z,68.59
2022-11-13T06:43:05.449Z,68.66
2022-11-13T06:45:51.147Z,69.29
2022-11-13T06:48:37.120Z,68.99
2022-11-13T06:51:25.889Z,68.98
2022-11-13T06:54:11.356Z,68.86
2022-11-13T06:56:57.073Z,68.98
2022-11-13T06:59:43.782Z,68.83
2022-11-13T07:02:31.225Z,69.33
2022-11-13T07:05:17.539Z,69.40
2022-11-13T07:08:03.405Z,69.73
2022-11-13T07:10:56.397Z,69.74
2022-11-13T07:13:42.364Z,69.81
2022-11-13T07:16:38.958Z,69.66
2022-11-13T07:19:30.522Z,69.70
2022-11-13T07:22:16.235Z,69.53
2022-11-13T07:25:01.935Z,70.11
2022-11-13T07:27:47.622Z,69.47
2022-11-13T07:31:49.723Z,68.63
2022-11-13T07:34:35.203Z,69.04
2022-11-13T07:37:20.657Z,68.73
2022-11-13T07:40:12.089Z,67.69
2022-11-13T07:42:59.581Z,68.27
2022-11-13T07:45:45.106Z,68.11
2022-11-13T07:48:31.037Z,67.81
2022-11-13T07:51:16.834Z,68.22
2022-11-13T07:54:02.158Z,67.36
2022-11-13T07:56:48.331Z,67.33
2022-11-13T07:59:33.890Z,66.89
2022-11-13T08:02:23.509Z,66.97
2022-11-13T08:05:11.423Z,66.97
2022-11-13T08:07:56.879Z,66.52
2022-11-13T08:10:42.735Z,66.16
2022-11-13T08:13:28.142Z,66.62
2022-11-13T08:16:14.139Z,66.38
2022-11-13T08:18:59.932Z,66.73
2022-11-13T08:21:45.749Z,65.68
2022-11-13T08:24:31.296Z,65.57
2022-11-13T08:27:16.994Z,66.03
2022-11-13T08:30:02.774Z,65.85
2022-11-13T08:32:49.119Z,65.89
2022-11-13T08:35:34.703Z,65.82
2022-11-13T08:38:20.968Z,65.73
2022-11-13T08:41:09.280Z,65.82
2022-11-13T08:43:55.458Z,65.67
2022-11-13T08:46:41.774Z,65.64
2022-11-13T08:49:27.182Z,65.58
2022-11-13T08:52:12.607Z,65.84
2022-11-13T08:54:58.805Z,65.76
2022-11-13T08:57:44.282Z,65.45
2022-11-13T09:00:31.358Z,65.45
2022-11-13T09:03:16.648Z,65.66
2022-11-13T09:06:05.842Z,65.10
2022-11-13T09:08:51.590Z,65.00
2022-11-13T09:11:37.201Z,65.53
2022-11-13T09:14:25.148Z,65.30
2022-11-13T09:17:10.935Z,64.92
2022-11-13T09:20:02.185Z,65.10
2022-11-13T09:22:49.134Z,64.57
2022-11-13T09:25:37.798Z,64.76
2022-11-13T09:28:23.851Z,64.80
2022-11-13T09:31:09.405Z,64.22
2022-11-13T09:33:54.679Z,64.44
2022-11-13T09:36:40.432Z,64.10
2022-11-13T09:39:26.036Z,63.47
2022-11-13T09:42:19.176Z,63.02
2022-11-13T09:45:13.482Z,62.63
2022-11-13T09:48:29.906Z,60.19
2022-11-13T09:51:21.449Z,61.67
2022-11-13T09:54:12.439Z,60.49
2022-11-13T09:57:30.561Z,59.70
2022-11-13T10:00:21.812Z,60.50
2022-11-13T10:04:00.645Z,57.89
2022-11-13T10:06:44.385Z,59.51
2022-11-13T10:09:41.045Z,58.01
2022-11-13T10:12:31.292Z,59.61
2022-11-13T10:15:17.948Z,59.78
2022-11-13T10:18:11.263Z,58.90
2022-11-13T10:21:21.464Z,58.99
2022-11-13T10:24:22.438Z,58.61
2022-11-13T10:27:13.258Z,59.28
2022-11-13T10:29:58.705Z,59.25
2022-11-13T10:32:45.282Z,59.02
2022-11-13T10:35:45.172Z,58.17
2022-11-13T10:38:56.874Z,58.07
2022-11-13T10:41:51.407Z,58.27
2022-11-13T10:44:36.975Z,59.48
2022-11-13T10:47:56.923Z,59.05
2022-11-13T10:50:31.691Z,59.64
2022-11-13T10:53:18.830Z,59.47
2022-11-13T10:56:14.736Z,59.14
2022-11-13T10:59:17.234Z,60.29
2022-11-13T11:02:15.904Z,60.12
2022-11-13T11:05:23.206Z,60.38
2022-11-13T11:08:11.033Z,60.56
2022-11-13T11:11:36.286Z,60.08
2022-11-13T11:14:28.534Z,59.97
2022-11-13T11:17:17.213Z,60.43
2022-11-13T11:20:20.887Z,60.56
2022-11-13T11:23:32.024Z,60.86
2022-11-13T11:26:29.942Z,60.47
2022-11-13T11:29:30.715Z,59.50
2022-11-13T11:32:32.858Z,59.77
2022-11-13T11:35:22.593Z,59.71
2022-11-13T11:38:22.222Z,58.48
2022-11-13T11:41:20.469Z,58.88
2022-11-13T11:44:15.112Z,58.80
2022-11-13T11:47:00.906Z,59.13
2022-11-13T11:49:47.188Z,58.81
2022-11-13T11:52:42.113Z,57.94
2022-11-13T11:55:40.971Z,59.10
2022-11-13T11:58:56.922Z,57.73
2022-11-13T12:01:51.817Z,59.23
2022-11-13T12:05:30.984Z,58.91
2022-11-13T12:08:28.679Z,59.18
2022-11-13T12:11:34.033Z,59.39
2022-11-13T12:14:31.543Z,59.80
2022-11-13T12:17:38.274Z,59.70
2022-11-13T12:20:49.181Z,58.82
2022-11-13T12:23:48.422Z,59.87
2022-11-13T12:26:56.183Z,60.32
2022-11-13T12:30:10.272Z,59.86
2022-11-13T12:33:17.884Z,59.70
2022-11-13T12:36:03.974Z,59.89
2022-11-13T12:39:26.396Z,58.83
2022-11-13T12:42:21.641Z,59.87
2022-11-13T12:45:22.288Z,59.53
2022-11-13T12:48:10.535Z,59.91
2022-11-13T12:51:08.008Z,59.83
2022-11-13T12:53:56.272Z,60.10
2022-11-13T12:56:42.079Z,60.15
2022-11-13T12:59:38.624Z,59.58
2022-11-13T13:02:40.832Z,60.07
2022-11-13T13:05:54.383Z,60.34
2022-11-13T13:09:04.270Z,60.25
2022-11-13T13:12:07.482Z,60.35
2022-11-13T13:14:55.792Z,61.41
2022-11-13T13:17:41.512Z,61.52
2022-11-13T13:20:34.946Z,62.07
2022-11-13T13:23:31.974Z,62.29
2022-11-13T13:26:23.774Z,62.35
2022-11-13T13:29:19.175Z,62.31
2022-11-13T13:32:13.673Z,62.95
2022-11-13T13:35:19.342Z,62.50
2022-11-13T13:38:21.680Z,62.38
2022-11-13T13:41:22.690Z,62.24
2022-11-13T13:44:34.614Z,62.06
2022-11-13T13:47:40.575Z,62.20
2022-11-13T13:50:32.195Z,62.47
2022-11-13T13:53:32.208Z,62.96
2022-11-13T13:56:20.790Z,62.77
2022-11-13T13:59:14.895Z,63.14
2022-11-13T14:02:01.934Z,63.56
2022-11-13T14:04:50.737Z,63.79
2022-11-13T14:07:38.316Z,63.65
2022-11-13T14:10:28.036Z,64.17
2022-11-13T14:13:14.781Z,64.23
2022-11-13T14:16:05.735Z,63.97
2022-11-13T14:18:51.335Z,64.52
2022-11-13T14:21:37.544Z,64.57
2022-11-13T14:24:27.106Z,64.88
2022-11-13T14:27:19.541Z,64.80
2022-11-13T14:30:09.892Z,64.37
2022-11-13T14:32:57.995Z,64.40
2022-11-13T14:35:56.743Z,64.06
2022-11-13T14:38:51.804Z,63.97
2022-11-13T14:41:46.129Z,63.72
2022-11-13T14:44:34.252Z,63.93
2022-11-13T14:47:27.138Z,63.85
2022-11-13T14:50:15.576Z,63.90
2022-11-13T14:53:10.031Z,63.14
2022-11-13T14:55:58.220Z,63.81
2022-11-13T14:58:47.566Z,63.30
2022-11-13T15:01:33.090Z,63.34
2022-11-13T15:04:18.885Z,63.49
2022-11-13T15:07:19.989Z,63.46
2022-11-13T15:10:06.326Z,63.53
2022-11-13T15:12:53.049Z,63.39
2022-11-13T15:15:39.131Z,63.38
2022-11-13T15:18:25.436Z,63.20
2022-11-13T15:21:11.293Z,63.25
2022-11-13T15:23:57.677Z,63.57
2022-11-13T15:26:43.102Z,63.48
2022-11-13T15:29:32.131Z,63.66
2022-11-13T15:32:17.780Z,63.51
2022-11-13T15:35:11.206Z,63.39
2022-11-13T15:37:57.521Z,63.45
2022-11-13T15:40:43.201Z,63.65
2022-11-13T15:43:28.876Z,63.31
2022-11-13T15:46:17.526Z,63.61
2022-11-13T15:49:03.220Z,63.73
2022-11-13T15:51:52.185Z,63.70
2022-11-13T15:54:38.903Z,63.95
2022-11-13T15:57:26.884Z,63.50
2022-11-13T16:00:17.872Z,63.54
2022-11-13T16:03:04.901Z,63.76
2022-11-13T16:05:51.376Z,63.75
2022-11-13T16:08:36.957Z,63.79
2022-11-13T16:11:22.446Z,63.50
2022-11-13T16:14:11.293Z,64.08
2022-11-13T16:16:58.642Z,63.91
2022-11-13T16:19:47.731Z,64.02
2022-11-13T16:22:33.702Z,63.87
2022-11-13T16:25:21.853Z,64.13
2022-11-13T16:28:17.105Z,63.85
2022-11-13T16:31:07.630Z,64.01
2022-11-13T16:33:55.278Z,63.85
2022-11-13T16:36:43.352Z,63.94
2022-11-13T16:39:29.016Z,63.94
2022-11-13T16:42:16.487Z,63.79
2022-11-13T16:45:01.985Z,63.81
2022-11-13T16:47:47.996Z,64.09
2022-11-13T16:50:37.031Z,63.66
2022-11-13T16:53:22.838Z,64.07
2022-11-13T16:56:15.564Z,63.69
2022-11-13T16:59:01.565Z,63.89
2022-11-13T17:01:47.350Z,63.88
2022-11-13T17:04:33.243Z,63.85
2022-11-13T17:07:18.971Z,64.28
2022-11-13T17:10:29.710Z,64.45
2022-11-13T17:13:13.591Z,64.10
2022-11-13T17:16:02.562Z,64.46
2022-11-13T17:18:49.634Z,64.54
2022-11-13T17:21:37.919Z,64.71
2022-11-13T17:24:27.106Z,64.31
2022-11-13T17:27:13.091Z,64.34
2022-11-13T17:29:58.688Z,64.55
2022-11-13T17:32:44.292Z,64.24
2022-11-13T17:35:29.784Z,64.41
2022-11-13T17:38:15.892Z,64.29
2022-11-13T17:41:09.958Z,63.97
2022-11-13T17:44:00.836Z,64.01
2022-11-13T17:46:50.106Z,64.11
2022-11-13T17:49:35.883Z,64.20
2022-11-13T17:52:25.334Z,64.23
2022-11-13T17:55:13.260Z,64.53
2022-11-13T17:58:01.967Z,64.67
2022-11-13T18:00:47.466Z,65.21
2022-11-13T18:03:35.626Z,65.24
2022-11-13T18:06:21.986Z,65.46
2022-11-13T18:09:07.866Z,65.87
2022-11-13T18:11:55.175Z,66.31
2022-11-13T18:14:40.677Z,66.04
2022-11-13T18:17:26.815Z,66.42
2022-11-13T18:20:12.451Z,66.61
2022-11-13T18:22:58.877Z,66.92
2022-11-13T18:25:44.788Z,67.03
2022-11-13T18:28:30.321Z,67.11
2022-11-13T18:31:18.644Z,66.95
2022-11-13T18:34:05.898Z,67.35
2022-11-13T18:36:51.606Z,67.13
2022-11-13T18:39:37.089Z,67.39
2022-11-13T18:42:22.647Z,67.46
2022-11-13T18:45:09.015Z,67.45
2022-11-13T18:47:54.811Z,67.46
2022-11-13T18:50:40.709Z,67.79
2022-11-13T18:53:31.768Z,67.90
2022-11-13T18:56:23.014Z,67.82
2022-11-13T18:59:11.221Z,68.18
2022-11-13T19:01:57.280Z,68.30
2022-11-13T19:04:42.779Z,68.52
2022-11-13T19:07:28.534Z,68.57
2022-11-13T19:10:16.527Z,68.63
2022-11-13T19:13:02.367Z,68.79
2022-11-13T19:15:50.415Z,68.46
2022-11-13T19:18:38.010Z,68.62
2022-11-13T19:21:25.710Z,68.58
2022-11-13T19:24:14.797Z,68.62
2022-11-13T19:27:00.749Z,68.59
2022-11-13T19:29:46.477Z,68.56
2022-11-13T19:32:32.093Z,68.94
2022-11-13T19:35:17.427Z,68.89
2022-11-13T19:38:03.617Z,68.93
2022-11-13T19:40:52.325Z,68.68
2022-11-13T19:43:40.872Z,68.80
2022-11-13T19:46:26.933Z,68.96
2022-11-13T19:49:12.452Z,68.69
2022-11-13T19:51:58.619Z,68.47
2022-11-13T19:54:45.240Z,68.49
2022-11-13T19:57:31.388Z,68.81
2022-11-13T20:00:18.060Z,68.81
2022-11-13T20:03:07.467Z,68.66
2022-11-13T20:05:55.732Z,68.52
2022-11-13T20:08:42.201Z,68.60
2022-11-13T20:11:28.302Z,68.63
2022-11-13T20:14:14.281Z,68.32
2022-11-13T20:17:00.186Z,68.42
2022-11-13T20:19:45.498Z,68.52
2022-11-13T20:22:31.782Z,68.70
2022-11-13T20:25:17.335Z,68.83
2022-11-13T20:28:03.085Z,68.77
2022-11-13T20:30:49.698Z,69.24
2022-11-13T20:33:35.934Z,69.54
2022-11-13T20:36:23.213Z,69.61
2022-11-13T20:39:09.567Z,69.43
2022-11-13T20:41:55.143Z,69.66
2022-11-13T20:44:40.893Z,69.39
2022-11-13T20:47:27.385Z,69.53
2022-11-13T20:50:12.822Z,69.33
2022-11-13T20:52:58.307Z,69.24
2022-11-13T20:55:43.863Z,69.13
2022-11-13T20:58:30.110Z,69.32
2022-11-13T21:01:18.824Z,69.45
2022-11-13T21:04:04.896Z,69.14
2022-11-13T21:06:52.446Z,69.22
2022-11-13T21:09:38.131Z,69.04
2022-11-13T21:12:23.902Z,68.85
2022-11-13T21:15:10.146Z,68.59
2022-11-13T21:17:55.615Z,68.75
2022-11-13T21:20:41.095Z,68.65
2022-11-13T21:23:29.564Z,68.24
2022-11-13T21:26:15.588Z,68.12
2022-11-13T21:29:01.008Z,68.44
2022-11-13T21:31:46.900Z,68.18
2022-11-13T21:34:32.804Z,68.51
2022-11-13T21:37:18.619Z,68.71
2022-11-13T21:40:08.362Z,69.04
2022-11-13T21:42:56.094Z,69.62
2022-11-13T21:45:41.554Z,69.62
2022-11-13T21:48:33.175Z,70.06
2022-11-13T21:51:19.160Z,70.27
2022-11-13T21:54:05.576Z,70.25
2022-11-13T21:56:50.941Z,70.27
2022-11-13T21:59:36.491Z,70.82
2022-11-13T22:02:22.108Z,70.74
2022-11-13T22:05:08.051Z,70.36
2022-11-13T22:07:53.261Z,70.88
2022-11-13T22:10:39.173Z,71.29
2022-11-13T22:13:24.705Z,71.32
2022-11-13T22:16:12.211Z,72.02
2022-11-13T22:19:00.275Z,72.34
2022-11-13T22:21:47.332Z,72.28
2022-11-13T22:24:32.896Z,72.61
2022-11-13T22:27:18.584Z,72.89
2022-11-13T22:30:05.027Z,72.72
2022-11-13T22:32:50.872Z,72.52
2022-11-13T22:35:36.251Z,72.73
2022-11-13T22:38:21.690Z,72.23
2022-11-13T22:41:11.493Z,72.34
2022-11-13T22:44:02.349Z,72.23
2022-11-13T22:46:48.117Z,72.15
2022-11-13T22:49:33.486Z,72.40
2022-11-13T22:52:18.926Z,72.00
2022-11-13T22:55:07.818Z,72.02
2022-11-13T22:57:54.294Z,71.54
2022-11-13T23:00:39.608Z,71.62
2022-11-13T23:03:25.533Z,71.54
2022-11-13T23:06:11.403Z,71.42
2022-11-13T23:08:57.084Z,71.48
2022-11-13T23:11:42.540Z,71.38
2022-11-13T23:14:30.573Z,71.47
2022-11-13T23:17:16.387Z,71.15
2022-11-13T23:20:01.924Z,70.88
2022-11-13T23:22:47.924Z,70.77
2022-11-13T23:25:34.306Z,70.72
2022-11-13T23:28:19.779Z,70.09
2022-11-13T23:31:05.985Z,70.24
2022-11-13T23:33:51.451Z,70.04
2022-11-13T23:36:36.958Z,69.62
2022-11-13T23:39:22.514Z,69.72
2022-11-13T23:42:08.188Z,69.56
2022-11-13T23:44:53.864Z,69.84
2022-11-13T23:47:39.541Z,69.77
2022-11-13T23:50:24.850Z,69.74
2022-11-13T23:53:11.085Z,69.75
2022-11-13T23:55:56.777Z,69.60
2022-11-13T23:58:42.556Z,69.80
